Flight Track Log - Related Links

Times and Time Zones

All times are in EDT time to prevent confusion due to time zone crossing. See the SET369 flight status page for this flight to view local times or setup timezone preferences in your user account.

Time Position Orientation Groundspeed Altitude Reporting Facility
EDT Latitude Longitude Course Direction KTS MPH feet Rate Location/Type
Wed 07:07:00 AM 35.1156 137.1094 44° Northeast  Level Estimated
Wed 07:08:00 AM 35.2011 137.2112 44° Northeast  Level Estimated
Wed 07:09:00 AM 35.2866 137.3132 44° Northeast  Level Estimated
Wed 07:10:00 AM 35.3720 137.4154 44° Northeast  Level Estimated
Wed 07:11:00 AM 35.4573 137.5179 44° Northeast  Level Estimated
Wed 07:12:00 AM 35.5425 137.6205 44° Northeast  Level Estimated
Wed 07:13:00 AM 35.6277 137.7234 44° Northeast  Level Estimated
Wed 07:14:00 AM 35.7127 137.8265 45° Northeast  Level Estimated
Wed 07:15:00 AM 35.7977 137.9298 45° Northeast  Level Estimated
Wed 07:16:00 AM 35.8826 138.0334 45° Northeast  Level Estimated
Wed 07:17:00 AM 35.9674 138.1371 45° Northeast  Level Estimated
Wed 07:18:00 AM 36.0521 138.2411 45° Northeast  Level Estimated
Wed 07:19:00 AM 36.1367 138.3453 45° Northeast  Level Estimated
Wed 07:20:00 AM 36.2212 138.4498 45° Northeast  Level Estimated
Wed 07:21:00 AM 36.3056 138.5544 45° Northeast  Level Estimated
Wed 07:22:00 AM 36.3900 138.6593 45° Northeast  Level Estimated
Wed 07:23:00 AM 36.4742 138.7644 45° Northeast  Level Estimated
Wed 07:24:00 AM 36.5583 138.8698 45° Northeast  Level Estimated
Wed 07:25:00 AM 36.6424 138.9753 45° Northeast  Level Estimated
Wed 07:26:00 AM 36.7264 139.0811 45° Northeast  Level Estimated
Wed 07:27:00 AM 36.8102 139.1871 45° Northeast  Level Estimated
Wed 07:28:00 AM 36.8940 139.2934 45° Northeast  Level Estimated
Wed 07:29:00 AM 36.9777 139.3999 45° Northeast  Level Estimated
Wed 07:30:00 AM 37.0613 139.5067 46° Northeast  Level Estimated
Wed 07:31:00 AM 37.1448 139.6136 46° Northeast  Level Estimated
Wed 07:32:00 AM 37.2282 139.7208 46° Northeast  Level Estimated
Wed 07:33:00 AM 37.3115 139.8283 46° Northeast  Level Estimated
Wed 07:34:00 AM 37.3947 139.9359 46° Northeast  Level Estimated
Wed 07:35:00 AM 37.4778 140.0439 46° Northeast  Level Estimated
Wed 07:36:00 AM 37.5608 140.1520 46° Northeast  Level Estimated
Wed 07:37:00 AM 37.6437 140.2604 46° Northeast  Level Estimated
Wed 07:38:00 AM 37.7265 140.3691 46° Northeast  Level Estimated
Wed 07:39:00 AM 37.8092 140.4780 46° Northeast  Level Estimated
Wed 07:40:00 AM 37.8918 140.5871 46° Northeast  Level Estimated
Wed 07:41:00 AM 37.9743 140.6965 46° Northeast  Level Estimated
Wed 07:42:00 AM 38.0567 140.8061 46° Northeast  Level Estimated
Wed 07:43:00 AM 38.1390 140.9159 46° Northeast  Level Estimated
Wed 07:44:00 AM 38.1397 140.9169 46° Northeast  Level Estimated
Wed 07:45:00 AM 38.1397 140.9169 58° Northeast  Level Estimated
Wed 07:46:00 AM 38.1397 140.9169 58° Northeast  Level Estimated
Wed 07:47:00 AM 38.1397 140.9169 58° Northeast  Level Estimated
Wed 07:48:00 AM 38.1397 140.9169 58° Northeast  Level Estimated
Wed 07:49:00 AM 38.1397 140.9169 58° Northeast  Level Estimated
Wed 07:50:00 AM 38.1397 140.9169 58° Northeast  Level Estimated
Wed 07:51:00 AM 38.1397 140.9169 58° Northeast  Level Estimated
Wed 07:52:00 AM 38.1397 140.9169 58° Northeast  Level Estimated
Wed 07:53:00 AM 38.1397 140.9169 58° Northeast  Level Estimated
Wed 07:54:00 AM 38.1397 140.9169 58° Northeast  Level Estimated
Wed 07:55:00 AM 38.1397 140.9169 58° Northeast  Level Estimated
Wed 07:56:00 AM 38.1397 140.9169 58° Northeast  Level Estimated
Wed 07:57:00 AM 38.1397 140.9169 58° Northeast  Level Estimated
Wed 07:58:00 AM 38.1397 140.9169 58° Northeast  Level Estimated
Wed 07:59:00 AM 38.1397 140.9169 58° Northeast  Level Estimated

Login

Don't have an account? Register now (free) for customized features, flight alerts, and more!